ASH6200 KIAH-KCOS
Flight info
| Callsign | ASH6200 |
|---|---|
| Flight time | 1h 58m |
| Altitude | 36000 |
| Route | STYCK8 DOLEY FUZ SPS KA36Y TBE DBRY5 |
| Aircraft | E75L/M-SDE3GILORVW/S |
Departure
| Time | 2026-04-22 19:46 |
|---|---|
| Airport | George Bush Intercontinental Airport (KIAH) |
Arrival
| Time | 2026-04-22 21:44 |
|---|---|
| Airport | City of Colorado Springs Municipal Airport (KCOS) |
| Time | Latitude | Longitude | Altitude | Speed | Heading |
|---|---|---|---|---|---|
| 2026-04-22 19:06 | 29.98943 | -95.34103 | 98 ft | 0 kts | 239° |
| 2026-04-22 19:33 | 29.98944 | -95.34101 | 99 ft | 1 kts | 239° |
| 2026-04-22 19:33 | 29.98952 | -95.34085 | 98 ft | 2 kts | 239° |
| 2026-04-22 19:33 | 29.98958 | -95.34069 | 98 ft | 2 kts | 261° |
| 2026-04-22 19:33 | 29.98959 | -95.34051 | 99 ft | 2 kts | 279° |
| 2026-04-22 19:34 | 29.98954 | -95.34035 | 99 ft | 2 kts | 301° |
| 2026-04-22 19:34 | 29.98944 | -95.34021 | 99 ft | 2 kts | 322° |
| 2026-04-22 19:34 | 29.98930 | -95.34013 | 98 ft | 2 kts | 343° |
| 2026-04-22 19:34 | 29.98922 | -95.34010 | 98 ft | 1 kts | 355° |
| 2026-04-22 19:35 | 29.98916 | -95.34010 | 98 ft | 0 kts | 356° |
| 2026-04-22 19:38 | 29.98925 | -95.34011 | 99 ft | 2 kts | 359° |
| 2026-04-22 19:38 | 29.98958 | -95.34011 | 98 ft | 6 kts | 359° |
| 2026-04-22 19:38 | 29.99011 | -95.34011 | 99 ft | 7 kts | 359° |
| 2026-04-22 19:38 | 29.99063 | -95.34021 | 98 ft | 7 kts | 334° |
| 2026-04-22 19:39 | 29.99088 | -95.34070 | 99 ft | 7 kts | 271° |
| 2026-04-22 19:39 | 29.99090 | -95.34132 | 99 ft | 7 kts | 273° |
| 2026-04-22 19:39 | 29.99089 | -95.34195 | 99 ft | 7 kts | 268° |
| 2026-04-22 19:39 | 29.99089 | -95.34261 | 98 ft | 8 kts | 271° |
| 2026-04-22 19:40 | 29.99089 | -95.34327 | 98 ft | 8 kts | 270° |
| 2026-04-22 19:40 | 29.99088 | -95.34396 | 98 ft | 8 kts | 269° |
| 2026-04-22 19:40 | 29.99089 | -95.34467 | 99 ft | 8 kts | 272° |
| 2026-04-22 19:40 | 29.99088 | -95.34538 | 98 ft | 9 kts | 269° |
| 2026-04-22 19:41 | 29.99088 | -95.34611 | 99 ft | 9 kts | 270° |
| 2026-04-22 19:41 | 29.99088 | -95.34686 | 99 ft | 9 kts | 271° |
| 2026-04-22 19:41 | 29.99089 | -95.34762 | 99 ft | 9 kts | 269° |
| 2026-04-22 19:41 | 29.99088 | -95.34842 | 98 ft | 10 kts | 269° |
| 2026-04-22 19:42 | 29.99087 | -95.34936 | 97 ft | 13 kts | 270° |
| 2026-04-22 19:42 | 29.99087 | -95.35052 | 95 ft | 15 kts | 270° |
| 2026-04-22 19:42 | 29.99086 | -95.35181 | 96 ft | 16 kts | 270° |
| 2026-04-22 19:42 | 29.99088 | -95.35301 | 97 ft | 14 kts | 271° |
| 2026-04-22 19:43 | 29.99078 | -95.35462 | 97 ft | 3 kts | 242° |
| 2026-04-22 19:43 | 29.99049 | -95.35484 | 96 ft | 7 kts | 188° |
| 2026-04-22 19:43 | 29.98978 | -95.35485 | 95 ft | 10 kts | 180° |
| 2026-04-22 19:44 | 29.98907 | -95.35516 | 95 ft | 11 kts | 235° |
| 2026-04-22 19:44 | 29.98866 | -95.35598 | 95 ft | 12 kts | 242° |
| 2026-04-22 19:44 | 29.98823 | -95.35687 | 95 ft | 12 kts | 241° |
| 2026-04-22 19:44 | 29.98767 | -95.35764 | 95 ft | 12 kts | 187° |
| 2026-04-22 19:45 | 29.98721 | -95.35746 | 95 ft | 0 kts | 152° |
| 2026-04-22 19:45 | 29.98708 | -95.35738 | 95 ft | 13 kts | 152° |
| 2026-04-22 19:45 | 29.98380 | -95.35536 | 96 ft | 89 kts | 152° |
| 2026-04-22 19:46 | 29.97631 | -95.35080 | 95 ft | 149 kts | 152° |
| 2026-04-22 19:46 | 29.96624 | -95.34476 | 435 ft | 166 kts | 152° |
| 2026-04-22 19:46 | 29.95564 | -95.33852 | 1039 ft | 174 kts | 154° |
| 2026-04-22 19:46 | 29.94525 | -95.33318 | 1765 ft | 159 kts | 153° |
| 2026-04-22 19:47 | 29.93563 | -95.32777 | 2527 ft | 148 kts | 153° |
| 2026-04-22 19:47 | 29.92614 | -95.32634 | 3178 ft | 140 kts | 198° |
| 2026-04-22 19:47 | 29.91838 | -95.33321 | 3513 ft | 157 kts | 235° |
| 2026-04-22 19:47 | 29.91381 | -95.34599 | 3711 ft | 184 kts | 260° |
| 2026-04-22 19:48 | 29.91573 | -95.36025 | 4376 ft | 179 kts | 306° |
| 2026-04-22 19:48 | 29.92427 | -95.36900 | 5093 ft | 169 kts | 322° |
| 2026-04-22 19:48 | 29.93436 | -95.37808 | 5277 ft | 196 kts | 322° |
| 2026-04-22 19:48 | 29.94657 | -95.38662 | 5554 ft | 215 kts | 348° |
| 2026-04-22 19:49 | 29.96255 | -95.38675 | 5801 ft | 239 kts | 2° |
| 2026-04-22 19:49 | 29.98006 | -95.38696 | 6083 ft | 262 kts | 357° |
| 2026-04-22 19:49 | 29.99888 | -95.38867 | 6496 ft | 279 kts | 354° |
| 2026-04-22 19:49 | 30.01878 | -95.39130 | 6998 ft | 291 kts | 352° |
| 2026-04-22 19:50 | 30.03916 | -95.39439 | 7559 ft | 300 kts | 351° |
| 2026-04-22 19:50 | 30.06020 | -95.39780 | 8164 ft | 307 kts | 350° |
| 2026-04-22 19:50 | 30.08141 | -95.40131 | 8792 ft | 312 kts | 350° |
| 2026-04-22 19:50 | 30.10245 | -95.40783 | 9431 ft | 312 kts | 333° |
| 2026-04-22 19:51 | 30.12206 | -95.41866 | 10091 ft | 313 kts | 332° |
| 2026-04-22 19:51 | 30.14180 | -95.42971 | 10758 ft | 315 kts | 332° |
| 2026-04-22 19:51 | 30.16173 | -95.44090 | 11431 ft | 316 kts | 332° |
| 2026-04-22 19:51 | 30.18134 | -95.45194 | 12090 ft | 317 kts | 332° |
| 2026-04-22 19:52 | 30.20125 | -95.46313 | 12760 ft | 317 kts | 332° |
| 2026-04-22 19:52 | 30.22115 | -95.47434 | 13423 ft | 318 kts | 332° |
| 2026-04-22 19:52 | 30.24115 | -95.48561 | 14085 ft | 318 kts | 332° |
| 2026-04-22 19:52 | 30.26089 | -95.49674 | 14732 ft | 317 kts | 332° |
| 2026-04-22 19:53 | 30.28064 | -95.50787 | 15374 ft | 317 kts | 332° |
| 2026-04-22 19:53 | 30.30055 | -95.51910 | 16015 ft | 316 kts | 332° |
| 2026-04-22 19:53 | 30.32035 | -95.53027 | 16643 ft | 316 kts | 332° |
| 2026-04-22 19:53 | 30.33999 | -95.54137 | 17259 ft | 315 kts | 333° |
| 2026-04-22 19:54 | 30.35974 | -95.55252 | 17870 ft | 315 kts | 333° |
| 2026-04-22 19:54 | 30.37916 | -95.56350 | 18465 ft | 315 kts | 333° |
| 2026-04-22 19:54 | 30.39898 | -95.57471 | 19065 ft | 314 kts | 332° |
| 2026-04-22 19:54 | 30.41860 | -95.58580 | 19654 ft | 314 kts | 332° |
| 2026-04-22 19:55 | 30.43816 | -95.59687 | 20248 ft | 314 kts | 332° |
| 2026-04-22 19:55 | 30.45762 | -95.60789 | 20824 ft | 313 kts | 332° |
| 2026-04-22 19:55 | 30.47704 | -95.61889 | 21382 ft | 313 kts | 333° |
| 2026-04-22 19:55 | 30.49671 | -95.63004 | 21933 ft | 312 kts | 333° |
| 2026-04-22 19:56 | 30.51622 | -95.64110 | 22472 ft | 312 kts | 333° |
| 2026-04-22 19:56 | 30.53546 | -95.65196 | 22996 ft | 312 kts | 333° |
| 2026-04-22 19:56 | 30.55554 | -95.66268 | 23531 ft | 311 kts | 333° |
| 2026-04-22 19:56 | 30.57509 | -95.67311 | 24047 ft | 311 kts | 333° |
| 2026-04-22 19:57 | 30.59489 | -95.68368 | 24556 ft | 311 kts | 333° |
| 2026-04-22 19:57 | 30.61455 | -95.69418 | 25044 ft | 311 kts | 333° |
| 2026-04-22 19:57 | 30.63430 | -95.70473 | 25525 ft | 311 kts | 333° |
| 2026-04-22 19:57 | 30.65386 | -95.71519 | 25986 ft | 311 kts | 333° |
| 2026-04-22 19:58 | 30.67352 | -95.72570 | 26447 ft | 311 kts | 333° |
| 2026-04-22 19:58 | 30.69309 | -95.73617 | 26891 ft | 311 kts | 333° |
| 2026-04-22 19:58 | 30.71291 | -95.74678 | 27321 ft | 311 kts | 333° |
| 2026-04-22 19:58 | 30.73248 | -95.75726 | 27745 ft | 312 kts | 332° |
| 2026-04-22 19:59 | 30.75209 | -95.76776 | 28165 ft | 312 kts | 332° |
| 2026-04-22 20:00 | 30.87092 | -95.83151 | 30454 ft | 314 kts | 332° |
| 2026-04-22 20:00 | 30.89094 | -95.84227 | 30824 ft | 314 kts | 332° |
| 2026-04-22 20:01 | 30.91076 | -95.85293 | 31181 ft | 314 kts | 332° |
| 2026-04-22 20:01 | 30.93055 | -95.86357 | 31534 ft | 313 kts | 332° |
| 2026-04-22 20:01 | 30.95044 | -95.87427 | 31875 ft | 313 kts | 332° |
| 2026-04-22 20:01 | 30.97005 | -95.88483 | 32210 ft | 312 kts | 332° |
| 2026-04-22 20:02 | 30.98971 | -95.89542 | 32531 ft | 312 kts | 332° |
| 2026-04-22 20:02 | 31.00961 | -95.90614 | 32860 ft | 311 kts | 332° |
| 2026-04-22 20:02 | 31.02897 | -95.91658 | 33175 ft | 311 kts | 332° |
| 2026-04-22 20:02 | 31.04888 | -95.92731 | 33481 ft | 310 kts | 332° |
| 2026-04-22 20:03 | 31.06840 | -95.93785 | 33768 ft | 310 kts | 332° |
| 2026-04-22 20:03 | 31.08808 | -95.94847 | 34047 ft | 310 kts | 331° |
| 2026-04-22 20:03 | 31.10772 | -95.95908 | 34319 ft | 310 kts | 332° |
| 2026-04-22 20:03 | 31.12758 | -95.96930 | 34583 ft | 313 kts | 337° |
| 2026-04-22 20:04 | 31.14835 | -95.97736 | 34851 ft | 313 kts | 338° |
| 2026-04-22 20:04 | 31.16922 | -95.98541 | 35102 ft | 314 kts | 338° |
| 2026-04-22 20:04 | 31.19025 | -95.99354 | 35343 ft | 315 kts | 338° |
| 2026-04-22 20:04 | 31.21114 | -96.00163 | 35572 ft | 316 kts | 338° |
| 2026-04-22 20:05 | 31.23218 | -96.00977 | 35790 ft | 317 kts | 338° |
| 2026-04-22 20:05 | 31.25349 | -96.01804 | 35998 ft | 318 kts | 338° |
| 2026-04-22 20:05 | 31.27481 | -96.02631 | 36028 ft | 325 kts | 339° |
| 2026-04-22 20:06 | 31.31885 | -96.04340 | 36043 ft | 338 kts | 339° |
| 2026-04-22 20:06 | 31.36466 | -96.06119 | 36042 ft | 352 kts | 339° |
| 2026-04-22 20:07 | 31.41247 | -96.07978 | 36038 ft | 366 kts | 339° |
| 2026-04-22 20:07 | 31.46200 | -96.09906 | 36037 ft | 380 kts | 339° |
| 2026-04-22 20:08 | 31.51293 | -96.11891 | 36037 ft | 392 kts | 339° |
| 2026-04-22 20:08 | 31.56575 | -96.13953 | 36033 ft | 405 kts | 339° |
| 2026-04-22 20:09 | 31.62032 | -96.16084 | 36035 ft | 416 kts | 340° |
| 2026-04-22 20:09 | 31.67619 | -96.18269 | 36039 ft | 427 kts | 340° |
| 2026-04-22 20:10 | 31.73317 | -96.20501 | 36035 ft | 437 kts | 340° |
| 2026-04-22 20:10 | 31.79169 | -96.22797 | 36035 ft | 445 kts | 340° |
| 2026-04-22 20:11 | 31.85101 | -96.25126 | 36035 ft | 452 kts | 340° |
| 2026-04-22 20:11 | 31.91142 | -96.27502 | 36038 ft | 457 kts | 340° |
| 2026-04-22 20:12 | 31.97198 | -96.29886 | 36047 ft | 461 kts | 340° |
| 2026-04-22 20:12 | 32.03267 | -96.32279 | 36040 ft | 451 kts | 340° |
| 2026-04-22 20:13 | 32.09166 | -96.34609 | 36047 ft | 447 kts | 340° |
| 2026-04-22 20:13 | 32.15051 | -96.36936 | 36045 ft | 447 kts | 340° |
| 2026-04-22 20:14 | 32.20512 | -96.40347 | 36047 ft | 444 kts | 322° |
| 2026-04-22 20:14 | 32.25042 | -96.45319 | 36036 ft | 446 kts | 316° |
| 2026-04-22 20:15 | 32.29494 | -96.50348 | 36032 ft | 445 kts | 316° |
| 2026-04-22 20:15 | 32.33976 | -96.55399 | 36032 ft | 445 kts | 317° |
| 2026-04-22 20:16 | 32.38457 | -96.60455 | 36034 ft | 446 kts | 317° |
| 2026-04-22 20:16 | 32.42935 | -96.65514 | 36036 ft | 445 kts | 316° |
| 2026-04-22 20:17 | 32.47425 | -96.70596 | 36041 ft | 447 kts | 316° |
| 2026-04-22 20:17 | 32.51881 | -96.75645 | 36043 ft | 446 kts | 316° |
| 2026-04-22 20:18 | 32.56356 | -96.80722 | 36044 ft | 446 kts | 316° |
| 2026-04-22 20:18 | 32.60840 | -96.85819 | 36043 ft | 447 kts | 316° |
| 2026-04-22 20:19 | 32.65319 | -96.90916 | 36041 ft | 448 kts | 316° |
| 2026-04-22 20:19 | 32.69821 | -96.96048 | 36036 ft | 449 kts | 316° |
| 2026-04-22 20:20 | 32.74310 | -97.01173 | 36037 ft | 450 kts | 316° |
| 2026-04-22 20:20 | 32.78839 | -97.06350 | 36038 ft | 450 kts | 316° |
| 2026-04-22 20:21 | 32.83346 | -97.11510 | 36039 ft | 452 kts | 316° |
| 2026-04-22 20:21 | 32.87851 | -97.16675 | 36037 ft | 450 kts | 316° |
| 2026-04-22 20:22 | 32.92190 | -97.22020 | 36036 ft | 452 kts | 313° |
| 2026-04-22 20:22 | 32.96506 | -97.27490 | 36033 ft | 453 kts | 314° |
| 2026-04-22 20:23 | 33.00813 | -97.32949 | 36031 ft | 453 kts | 314° |
| 2026-04-22 20:23 | 33.05120 | -97.38414 | 36030 ft | 452 kts | 314° |
| 2026-04-22 20:24 | 33.09381 | -97.43829 | 36025 ft | 451 kts | 313° |
| 2026-04-22 20:24 | 33.13674 | -97.49294 | 36026 ft | 452 kts | 313° |
| 2026-04-22 20:25 | 33.17955 | -97.54752 | 36026 ft | 450 kts | 313° |
| 2026-04-22 20:25 | 33.22232 | -97.60214 | 36027 ft | 451 kts | 313° |
| 2026-04-22 20:26 | 33.26508 | -97.65681 | 36027 ft | 450 kts | 312° |
| 2026-04-22 20:26 | 33.30788 | -97.71162 | 36025 ft | 451 kts | 312° |
| 2026-04-22 20:27 | 33.35032 | -97.76607 | 36017 ft | 450 kts | 312° |
| 2026-04-22 20:27 | 33.39297 | -97.82085 | 36010 ft | 449 kts | 312° |
| 2026-04-22 20:28 | 33.43571 | -97.87585 | 36004 ft | 451 kts | 312° |
| 2026-04-22 20:28 | 33.47836 | -97.93082 | 36003 ft | 452 kts | 312° |
| 2026-04-22 20:29 | 33.52095 | -97.98578 | 36001 ft | 451 kts | 312° |
| 2026-04-22 20:29 | 33.56359 | -98.04091 | 35998 ft | 452 kts | 311° |
| 2026-04-22 20:30 | 33.60598 | -98.09578 | 35994 ft | 451 kts | 311° |
| 2026-04-22 20:30 | 33.64855 | -98.15099 | 35986 ft | 452 kts | 311° |
| 2026-04-22 20:31 | 33.69124 | -98.20643 | 35979 ft | 452 kts | 311° |
| 2026-04-22 20:31 | 33.73378 | -98.26176 | 35974 ft | 452 kts | 311° |
| 2026-04-22 20:32 | 33.77634 | -98.31722 | 35979 ft | 453 kts | 311° |
| 2026-04-22 20:32 | 33.81868 | -98.37247 | 35981 ft | 451 kts | 311° |
| 2026-04-22 20:33 | 33.86127 | -98.42814 | 35981 ft | 452 kts | 311° |
| 2026-04-22 20:33 | 33.90366 | -98.48363 | 35975 ft | 451 kts | 311° |
| 2026-04-22 20:34 | 33.94512 | -98.53798 | 35954 ft | 426 kts | 311° |
| 2026-04-22 20:34 | 33.98517 | -98.59078 | 35971 ft | 429 kts | 309° |
| 2026-04-22 20:35 | 34.02143 | -98.64850 | 35974 ft | 439 kts | 306° |
| 2026-04-22 20:35 | 34.05815 | -98.70790 | 35962 ft | 438 kts | 306° |
| 2026-04-22 20:36 | 34.09456 | -98.76691 | 35958 ft | 437 kts | 305° |
| 2026-04-22 20:36 | 34.13077 | -98.82568 | 35958 ft | 435 kts | 305° |
| 2026-04-22 20:37 | 34.16695 | -98.88451 | 35958 ft | 435 kts | 306° |
| 2026-04-22 20:37 | 34.20311 | -98.94339 | 35948 ft | 435 kts | 306° |
| 2026-04-22 20:38 | 34.23909 | -99.00206 | 35944 ft | 433 kts | 306° |
| 2026-04-22 20:38 | 34.27531 | -99.06124 | 35944 ft | 434 kts | 306° |
| 2026-04-22 20:39 | 34.31137 | -99.12025 | 35944 ft | 436 kts | 305° |
| 2026-04-22 20:39 | 34.34742 | -99.17934 | 35937 ft | 434 kts | 306° |
| 2026-04-22 20:40 | 34.38343 | -99.23846 | 35938 ft | 434 kts | 305° |
| 2026-04-22 20:40 | 34.41907 | -99.29709 | 35934 ft | 433 kts | 306° |
| 2026-04-22 20:41 | 34.45497 | -99.35622 | 35939 ft | 433 kts | 305° |
| 2026-04-22 20:41 | 34.49109 | -99.41581 | 35933 ft | 434 kts | 305° |
| 2026-04-22 20:42 | 34.52699 | -99.47514 | 35928 ft | 433 kts | 305° |
| 2026-04-22 20:42 | 34.56271 | -99.53427 | 35924 ft | 434 kts | 305° |
| 2026-04-22 20:43 | 34.59872 | -99.59398 | 35929 ft | 434 kts | 305° |
| 2026-04-22 20:43 | 34.63445 | -99.65334 | 35919 ft | 433 kts | 304° |
| 2026-04-22 20:44 | 34.67006 | -99.71259 | 35927 ft | 433 kts | 304° |
| 2026-04-22 20:44 | 34.70560 | -99.77181 | 35923 ft | 434 kts | 304° |
| 2026-04-22 20:45 | 34.74133 | -99.83145 | 35921 ft | 434 kts | 304° |
| 2026-04-22 20:45 | 34.77693 | -99.89098 | 35926 ft | 435 kts | 304° |
| 2026-04-22 20:46 | 34.83060 | -99.98092 | 35920 ft | 435 kts | 304° |
| 2026-04-22 20:46 | 34.86618 | -100.04067 | 35916 ft | 434 kts | 304° |
| 2026-04-22 20:47 | 34.90180 | -100.10059 | 35915 ft | 434 kts | 304° |
| 2026-04-22 20:47 | 34.93732 | -100.16042 | 35918 ft | 434 kts | 304° |
| 2026-04-22 20:48 | 34.97278 | -100.22028 | 35924 ft | 436 kts | 304° |
| 2026-04-22 20:48 | 35.00802 | -100.27985 | 35925 ft | 435 kts | 304° |
| 2026-04-22 20:49 | 35.04386 | -100.34054 | 35921 ft | 436 kts | 304° |
| 2026-04-22 20:49 | 35.07919 | -100.40047 | 35921 ft | 436 kts | 304° |
| 2026-04-22 20:50 | 35.11467 | -100.46077 | 35909 ft | 435 kts | 303° |
| 2026-04-22 20:50 | 35.14993 | -100.52078 | 35921 ft | 436 kts | 303° |
| 2026-04-22 20:51 | 35.18509 | -100.58074 | 35919 ft | 436 kts | 303° |
| 2026-04-22 20:51 | 35.22023 | -100.64076 | 35920 ft | 436 kts | 303° |
| 2026-04-22 20:52 | 35.25542 | -100.70097 | 35926 ft | 436 kts | 303° |
| 2026-04-22 20:52 | 35.29069 | -100.76142 | 35934 ft | 437 kts | 303° |
| 2026-04-22 20:53 | 35.32616 | -100.82231 | 35932 ft | 436 kts | 303° |
| 2026-04-22 20:53 | 35.36137 | -100.88286 | 35929 ft | 437 kts | 303° |
| 2026-04-22 20:54 | 35.39658 | -100.94352 | 35925 ft | 435 kts | 302° |
| 2026-04-22 20:54 | 35.43176 | -101.00424 | 35935 ft | 434 kts | 303° |
| 2026-04-22 20:55 | 35.46705 | -101.06525 | 35921 ft | 435 kts | 302° |
| 2026-04-22 20:55 | 35.50223 | -101.12617 | 35919 ft | 436 kts | 302° |
| 2026-04-22 20:56 | 35.53721 | -101.18684 | 35928 ft | 436 kts | 302° |
| 2026-04-22 20:56 | 35.57232 | -101.24787 | 35918 ft | 437 kts | 302° |
| 2026-04-22 20:57 | 35.60778 | -101.30960 | 35910 ft | 437 kts | 302° |
| 2026-04-22 20:57 | 35.64285 | -101.37077 | 35903 ft | 438 kts | 302° |
| 2026-04-22 20:58 | 35.67809 | -101.43232 | 35891 ft | 437 kts | 302° |
| 2026-04-22 20:58 | 35.71308 | -101.49358 | 35889 ft | 437 kts | 302° |
| 2026-04-22 20:59 | 35.74812 | -101.55500 | 35898 ft | 438 kts | 302° |
| 2026-04-22 20:59 | 35.78292 | -101.61613 | 35898 ft | 438 kts | 302° |
| 2026-04-22 21:00 | 35.81771 | -101.67735 | 35917 ft | 438 kts | 301° |
| 2026-04-22 21:00 | 35.85283 | -101.73924 | 35910 ft | 440 kts | 301° |
| 2026-04-22 21:01 | 35.88782 | -101.80103 | 35919 ft | 439 kts | 301° |
| 2026-04-22 21:01 | 35.92265 | -101.86265 | 35922 ft | 440 kts | 301° |
| 2026-04-22 21:02 | 35.95766 | -101.92467 | 35933 ft | 441 kts | 301° |
| 2026-04-22 21:02 | 35.99240 | -101.98634 | 35945 ft | 441 kts | 301° |
| 2026-04-22 21:03 | 36.03434 | -102.04288 | 35944 ft | 446 kts | 311° |
| 2026-04-22 21:03 | 36.07803 | -102.09682 | 35955 ft | 444 kts | 310° |
| 2026-04-22 21:04 | 36.12163 | -102.15108 | 35949 ft | 443 kts | 310° |
| 2026-04-22 21:04 | 36.16479 | -102.20491 | 35946 ft | 440 kts | 310° |
| 2026-04-22 21:05 | 36.20781 | -102.25865 | 35951 ft | 439 kts | 310° |
| 2026-04-22 21:05 | 36.25064 | -102.31225 | 35951 ft | 438 kts | 310° |
| 2026-04-22 21:06 | 36.29353 | -102.36599 | 35950 ft | 435 kts | 310° |
| 2026-04-22 21:06 | 36.33596 | -102.41926 | 35959 ft | 431 kts | 310° |
| 2026-04-22 21:07 | 36.37793 | -102.47203 | 35952 ft | 430 kts | 310° |
| 2026-04-22 21:07 | 36.42001 | -102.52502 | 35951 ft | 429 kts | 310° |
| 2026-04-22 21:08 | 36.46182 | -102.57780 | 35948 ft | 429 kts | 310° |
| 2026-04-22 21:08 | 36.50362 | -102.63061 | 35954 ft | 428 kts | 310° |
| 2026-04-22 21:09 | 36.54514 | -102.68315 | 35962 ft | 425 kts | 310° |
| 2026-04-22 21:09 | 36.58670 | -102.73585 | 35961 ft | 425 kts | 310° |
| 2026-04-22 21:10 | 36.62782 | -102.78806 | 35962 ft | 424 kts | 310° |
| 2026-04-22 21:10 | 36.66895 | -102.84037 | 35960 ft | 422 kts | 310° |
| 2026-04-22 21:11 | 36.71010 | -102.89280 | 35968 ft | 422 kts | 310° |
| 2026-04-22 21:11 | 36.75078 | -102.94471 | 35971 ft | 420 kts | 311° |
| 2026-04-22 21:12 | 36.79154 | -102.99680 | 35976 ft | 420 kts | 310° |
| 2026-04-22 21:12 | 36.83228 | -103.04895 | 35978 ft | 417 kts | 310° |
| 2026-04-22 21:13 | 36.87275 | -103.10085 | 35978 ft | 417 kts | 310° |
| 2026-04-22 21:13 | 36.91321 | -103.15280 | 35982 ft | 417 kts | 310° |
| 2026-04-22 21:14 | 36.95342 | -103.20453 | 35992 ft | 414 kts | 310° |
| 2026-04-22 21:14 | 36.99357 | -103.25626 | 35994 ft | 416 kts | 310° |
| 2026-04-22 21:15 | 37.03362 | -103.30795 | 36012 ft | 414 kts | 310° |
| 2026-04-22 21:15 | 37.07376 | -103.35983 | 36019 ft | 416 kts | 310° |
| 2026-04-22 21:16 | 37.11406 | -103.41200 | 36019 ft | 415 kts | 310° |
| 2026-04-22 21:16 | 37.15412 | -103.46396 | 36026 ft | 414 kts | 310° |
| 2026-04-22 21:17 | 37.19407 | -103.51585 | 36045 ft | 414 kts | 310° |
| 2026-04-22 21:17 | 37.23408 | -103.56792 | 36022 ft | 413 kts | 310° |
| 2026-04-22 21:18 | 37.27463 | -103.61886 | 36039 ft | 413 kts | 314° |
| 2026-04-22 21:18 | 37.31713 | -103.66814 | 36036 ft | 413 kts | 312° |
| 2026-04-22 21:19 | 37.35949 | -103.71759 | 36015 ft | 415 kts | 312° |
| 2026-04-22 21:19 | 37.40158 | -103.76684 | 36020 ft | 412 kts | 312° |
| 2026-04-22 21:20 | 37.44306 | -103.81545 | 36021 ft | 409 kts | 312° |
| 2026-04-22 21:20 | 37.48488 | -103.86453 | 36010 ft | 410 kts | 312° |
| 2026-04-22 21:21 | 37.52706 | -103.91412 | 36011 ft | 408 kts | 312° |
| 2026-04-22 21:21 | 37.56791 | -103.96223 | 36007 ft | 401 kts | 313° |
| 2026-04-22 21:22 | 37.60883 | -104.01049 | 35828 ft | 403 kts | 312° |
| 2026-04-22 21:22 | 37.62976 | -104.03520 | 35373 ft | 405 kts | 312° |
| 2026-04-22 21:22 | 37.65026 | -104.05943 | 34926 ft | 405 kts | 312° |
| 2026-04-22 21:23 | 37.67089 | -104.08384 | 34481 ft | 408 kts | 312° |
| 2026-04-22 21:23 | 37.69193 | -104.10874 | 34024 ft | 412 kts | 312° |
| 2026-04-22 21:23 | 37.71281 | -104.13348 | 33584 ft | 410 kts | 312° |
| 2026-04-22 21:23 | 37.73385 | -104.15842 | 33114 ft | 415 kts | 312° |
| 2026-04-22 21:24 | 37.75488 | -104.18336 | 32647 ft | 417 kts | 312° |
| 2026-04-22 21:24 | 37.77625 | -104.20875 | 32196 ft | 421 kts | 312° |
| 2026-04-22 21:24 | 37.79754 | -104.23405 | 31722 ft | 417 kts | 312° |
| 2026-04-22 21:24 | 37.81885 | -104.25940 | 31257 ft | 416 kts | 312° |
| 2026-04-22 21:25 | 37.83964 | -104.28414 | 30808 ft | 413 kts | 312° |
| 2026-04-22 21:25 | 37.86060 | -104.30911 | 30344 ft | 412 kts | 312° |
| 2026-04-22 21:25 | 37.88147 | -104.33401 | 29884 ft | 411 kts | 312° |
| 2026-04-22 21:25 | 37.90219 | -104.35874 | 29429 ft | 410 kts | 312° |
| 2026-04-22 21:26 | 37.92297 | -104.38354 | 28985 ft | 407 kts | 312° |
| 2026-04-22 21:26 | 37.94321 | -104.40774 | 28546 ft | 405 kts | 312° |
| 2026-04-22 21:26 | 37.96379 | -104.43237 | 28096 ft | 403 kts | 312° |
| 2026-04-22 21:26 | 37.98399 | -104.45654 | 27633 ft | 401 kts | 312° |
| 2026-04-22 21:27 | 38.00444 | -104.48105 | 27182 ft | 399 kts | 312° |
| 2026-04-22 21:27 | 38.02439 | -104.50498 | 26735 ft | 399 kts | 312° |
| 2026-04-22 21:27 | 38.04446 | -104.52907 | 26307 ft | 397 kts | 312° |
| 2026-04-22 21:27 | 38.06453 | -104.55317 | 25864 ft | 394 kts | 312° |
| 2026-04-22 21:28 | 38.08422 | -104.57684 | 25417 ft | 394 kts | 312° |
| 2026-04-22 21:28 | 38.10402 | -104.60066 | 24971 ft | 390 kts | 312° |
| 2026-04-22 21:28 | 38.12364 | -104.62427 | 24528 ft | 389 kts | 312° |
| 2026-04-22 21:28 | 38.14630 | -104.64358 | 24103 ft | 400 kts | 334° |
| 2026-04-22 21:29 | 38.17353 | -104.65060 | 23604 ft | 403 kts | 355° |
| 2026-04-22 21:29 | 38.20132 | -104.64998 | 23156 ft | 390 kts | 356° |
| 2026-04-22 21:29 | 38.22808 | -104.64933 | 22726 ft | 378 kts | 356° |
| 2026-04-22 21:29 | 38.25417 | -104.64873 | 22294 ft | 367 kts | 355° |
| 2026-04-22 21:30 | 38.27943 | -104.64818 | 21888 ft | 359 kts | 355° |
| 2026-04-22 21:30 | 38.30435 | -104.64764 | 21500 ft | 357 kts | 355° |
| 2026-04-22 21:30 | 38.32960 | -104.64707 | 21198 ft | 361 kts | 1° |
| 2026-04-22 21:30 | 38.35438 | -104.63973 | 20757 ft | 365 kts | 9° |
| 2026-04-22 21:31 | 38.37925 | -104.63266 | 20334 ft | 362 kts | 6° |
| 2026-04-22 21:31 | 38.40384 | -104.62659 | 19953 ft | 360 kts | 5° |
| 2026-04-22 21:31 | 38.42818 | -104.62090 | 19564 ft | 358 kts | 5° |
| 2026-04-22 21:31 | 38.45270 | -104.61526 | 19162 ft | 356 kts | 5° |
| 2026-04-22 21:32 | 38.47701 | -104.60973 | 18787 ft | 352 kts | 5° |
| 2026-04-22 21:32 | 38.50124 | -104.60424 | 18402 ft | 350 kts | 5° |
| 2026-04-22 21:32 | 38.52545 | -104.59875 | 18019 ft | 348 kts | 6° |
| 2026-04-22 21:32 | 38.54909 | -104.59337 | 17612 ft | 345 kts | 5° |
| 2026-04-22 21:33 | 38.57277 | -104.58800 | 17212 ft | 344 kts | 5° |
| 2026-04-22 21:33 | 38.59644 | -104.58262 | 16865 ft | 343 kts | 5° |
| 2026-04-22 21:33 | 38.62020 | -104.57722 | 16571 ft | 341 kts | 5° |
| 2026-04-22 21:33 | 38.64382 | -104.57184 | 16216 ft | 338 kts | 5° |
| 2026-04-22 21:34 | 38.66699 | -104.56657 | 15863 ft | 338 kts | 6° |
| 2026-04-22 21:34 | 38.69009 | -104.56130 | 15450 ft | 336 kts | 6° |
| 2026-04-22 21:34 | 38.71318 | -104.55604 | 15101 ft | 334 kts | 5° |
| 2026-04-22 21:34 | 38.73618 | -104.55080 | 14745 ft | 333 kts | 6° |
| 2026-04-22 21:35 | 38.75897 | -104.54559 | 14357 ft | 333 kts | 6° |
| 2026-04-22 21:35 | 38.78163 | -104.54041 | 13999 ft | 331 kts | 6° |
| 2026-04-22 21:35 | 38.80435 | -104.53522 | 13637 ft | 329 kts | 6° |
| 2026-04-22 21:35 | 38.82700 | -104.53003 | 13270 ft | 321 kts | 6° |
| 2026-04-22 21:36 | 38.84843 | -104.52511 | 12860 ft | 306 kts | 6° |
| 2026-04-22 21:36 | 38.86921 | -104.52036 | 12615 ft | 296 kts | 5° |
| 2026-04-22 21:36 | 38.88952 | -104.51898 | 12309 ft | 286 kts | 355° |
| 2026-04-22 21:36 | 38.90939 | -104.51894 | 11999 ft | 282 kts | 355° |
| 2026-04-22 21:37 | 38.92903 | -104.51892 | 11696 ft | 280 kts | 353° |
| 2026-04-22 21:37 | 38.94745 | -104.52517 | 11439 ft | 266 kts | 327° |
| 2026-04-22 21:37 | 38.96405 | -104.53618 | 11158 ft | 267 kts | 326° |
| 2026-04-22 21:37 | 38.97892 | -104.54958 | 10813 ft | 247 kts | 300° |
| 2026-04-22 21:38 | 38.98374 | -104.56824 | 10730 ft | 209 kts | 263° |
| 2026-04-22 21:38 | 38.98085 | -104.58582 | 10567 ft | 197 kts | 251° |
| 2026-04-22 21:38 | 38.97634 | -104.60200 | 10327 ft | 178 kts | 248° |
| 2026-04-22 21:38 | 38.97173 | -104.61593 | 10049 ft | 165 kts | 246° |
| 2026-04-22 21:39 | 38.96708 | -104.62878 | 9780 ft | 151 kts | 245° |
| 2026-04-22 21:39 | 38.96264 | -104.64044 | 9545 ft | 136 kts | 244° |
| 2026-04-22 21:39 | 38.95852 | -104.65092 | 9335 ft | 128 kts | 243° |
| 2026-04-22 21:39 | 38.95437 | -104.66116 | 9172 ft | 130 kts | 242° |
| 2026-04-22 21:40 | 38.95013 | -104.67142 | 9036 ft | 129 kts | 241° |
| 2026-04-22 21:40 | 38.94516 | -104.68095 | 8858 ft | 135 kts | 220° |
| 2026-04-22 21:40 | 38.93621 | -104.68462 | 8695 ft | 138 kts | 193° |
| 2026-04-22 21:40 | 38.92630 | -104.68479 | 8505 ft | 140 kts | 187° |
| 2026-04-22 21:41 | 38.91671 | -104.68489 | 8289 ft | 137 kts | 189° |
| 2026-04-22 21:41 | 38.90729 | -104.68527 | 8124 ft | 135 kts | 187° |
| 2026-04-22 21:41 | 38.89767 | -104.68529 | 7959 ft | 139 kts | 185° |
| 2026-04-22 21:41 | 38.88802 | -104.68534 | 7752 ft | 140 kts | 186° |
| 2026-04-22 21:42 | 38.87843 | -104.68529 | 7568 ft | 132 kts | 186° |
| 2026-04-22 21:42 | 38.86906 | -104.68549 | 7402 ft | 136 kts | 187° |
| 2026-04-22 21:42 | 38.85986 | -104.68578 | 7184 ft | 134 kts | 186° |
| 2026-04-22 21:42 | 38.85065 | -104.68586 | 6997 ft | 131 kts | 185° |
| 2026-04-22 21:43 | 38.84145 | -104.68594 | 6799 ft | 133 kts | 184° |
| 2026-04-22 21:43 | 38.83221 | -104.68594 | 6529 ft | 132 kts | 182° |
| 2026-04-22 21:43 | 38.82324 | -104.68581 | 6351 ft | 124 kts | 183° |
| 2026-04-22 21:43 | 38.81447 | -104.68574 | 6197 ft | 130 kts | 183° |
| 2026-04-22 21:44 | 38.80620 | -104.68579 | 6177 ft | 101 kts | 178° |
| 2026-04-22 21:44 | 38.80048 | -104.68576 | 6145 ft | 69 kts | 178° |
| 2026-04-22 21:44 | 38.79577 | -104.68581 | 6122 ft | 62 kts | 180° |
| 2026-04-22 21:44 | 38.79274 | -104.68617 | 6126 ft | 32 kts | 195° |
| 2026-04-22 21:45 | 38.79145 | -104.68697 | 6127 ft | 15 kts | 226° |
| 2026-04-22 21:45 | 38.79172 | -104.68785 | 6127 ft | 13 kts | 352° |
| 2026-04-22 21:45 | 38.79271 | -104.68787 | 6126 ft | 15 kts | 359° |
| 2026-04-22 21:45 | 38.79387 | -104.68789 | 6124 ft | 17 kts | 359° |
| 2026-04-22 21:46 | 38.79516 | -104.68788 | 6122 ft | 19 kts | 2° |
| 2026-04-22 21:46 | 38.79652 | -104.68787 | 6122 ft | 19 kts | 359° |
| 2026-04-22 21:46 | 38.79762 | -104.68788 | 6126 ft | 13 kts | 0° |
| 2026-04-22 21:46 | 38.79851 | -104.68787 | 6130 ft | 11 kts | 360° |
| 2026-04-22 21:47 | 38.79921 | -104.68787 | 6135 ft | 8 kts | 360° |
| 2026-04-22 21:47 | 38.79986 | -104.68787 | 6140 ft | 10 kts | 360° |
| 2026-04-22 21:47 | 38.80072 | -104.68787 | 6145 ft | 14 kts | 359° |
| 2026-04-22 21:47 | 38.80186 | -104.68787 | 6153 ft | 18 kts | 0° |
| 2026-04-22 21:48 | 38.80276 | -104.68842 | 6157 ft | 14 kts | 276° |
| 2026-04-22 21:48 | 38.80277 | -104.68973 | 6155 ft | 14 kts | 271° |
| 2026-04-22 21:48 | 38.80279 | -104.69106 | 6153 ft | 15 kts | 269° |
| 2026-04-22 21:48 | 38.80278 | -104.69253 | 6149 ft | 18 kts | 269° |
| 2026-04-22 21:49 | 38.80278 | -104.69425 | 6142 ft | 21 kts | 271° |
| 2026-04-22 21:49 | 38.80276 | -104.69627 | 6134 ft | 15 kts | 266° |
| 2026-04-22 21:49 | 38.80209 | -104.69724 | 6130 ft | 17 kts | 183° |
| 2026-04-22 21:49 | 38.80091 | -104.69731 | 6130 ft | 16 kts | 200° |
| 2026-04-22 21:50 | 38.80031 | -104.69854 | 6127 ft | 16 kts | 244° |
| 2026-04-22 21:50 | 38.79942 | -104.69946 | 6122 ft | 13 kts | 238° |
| 2026-04-22 21:50 | 38.79933 | -104.70014 | 6120 ft | 4 kts | 269° |
| 2026-04-22 21:50 | 38.79933 | -104.70017 | 6120 ft | 0 kts | 270° |